Time;durP1;ratioP1;P1;durP2;ratioP2;P2;SDS_P1;SDS_P2;PMS_P1;PMS_P2;Temp;Humidity;BMP_temperature;BMP_pressure;BME280_temperature;BME280_humidity;BME280_pressure;Samples;Min_cycle;Max_cycle;Signal;HPM_P1;HPM_P2
2021/12/08 00:00:42;;;;;;;;;32.00;27.75;;;;;14.91;46.79;98072.78;4906985;28;104145;-82
2021/12/08 00:03:11;;;;;;;;;27.75;25.50;;;;;14.90;46.87;98064.91;4896585;28;102568;-82
2021/12/08 00:05:39;;;;;;;;;26.75;24.25;;;;;14.89;46.65;98074.94;4901668;28;102507;-82
2021/12/08 00:08:07;;;;;;;;;29.00;24.50;;;;;14.88;46.51;98059.69;4875954;28;103190;-82
2021/12/08 00:15:38;;;;;;;;;30.75;27.00;;;;;14.84;46.65;98055.78;4896923;28;102698;-80
2021/12/08 00:18:06;;;;;;;;;28.25;26.25;;;;;14.83;46.46;98047.84;4909724;28;102539;-82
2021/12/08 00:20:34;;;;;;;;;25.75;25.25;;;;;14.82;46.62;98057.09;4883040;28;104198;-82
2021/12/08 00:23:01;;;;;;;;;28.50;25.75;;;;;14.81;46.88;98056.28;4884409;28;103774;-82
2021/12/08 00:25:30;;;;;;;;;27.50;25.50;;;;;14.81;46.90;98059.00;4909246;28;102630;-82
2021/12/08 00:27:57;;;;;;;;;25.00;23.25;;;;;14.80;46.92;98060.06;4922795;28;102679;-82
2021/12/08 00:30:25;;;;;;;;;30.25;26.00;;;;;14.78;46.75;98056.75;4891886;28;104268;-82
2021/12/08 00:32:53;;;;;;;;;27.25;25.00;;;;;14.77;47.05;98057.81;4912977;28;103127;-82
2021/12/08 00:35:20;;;;;;;;;27.75;26.50;;;;;14.77;46.44;98060.53;4928996;28;102556;-82
2021/12/08 00:37:47;;;;;;;;;29.50;27.25;;;;;14.76;46.74;98060.78;4862508;28;102691;-82
2021/12/08 00:40:15;;;;;;;;;28.75;24.00;;;;;14.74;46.97;98066.47;4900693;28;104056;-82
2021/12/08 00:42:42;;;;;;;;;26.00;22.75;;;;;14.74;46.85;98058.31;4891304;28;102189;-82
2021/12/08 00:45:10;;;;;;;;;28.50;26.50;;;;;14.73;46.53;98060.19;4906636;28;102650;-82
2021/12/08 00:47:37;;;;;;;;;28.50;26.75;;;;;14.72;46.66;98057.72;4886228;28;102363;-82
2021/12/08 00:50:06;;;;;;;;;25.50;23.25;;;;;14.71;46.52;98059.63;4894127;28;104178;-82
2021/12/08 00:52:33;;;;;;;;;24.50;23.75;;;;;14.70;47.25;98066.13;4879437;28;103876;-82
2021/12/08 00:55:00;;;;;;;;;28.50;26.00;;;;;14.70;47.12;98065.28;4894266;28;102641;-82
2021/12/08 00:57:27;;;;;;;;;28.00;24.75;;;;;14.69;46.86;98064.47;4909248;28;102596;-82
2021/12/08 00:59:54;;;;;;;;;23.50;22.00;;;;;14.69;46.74;98063.63;4900048;28;104000;-82
2021/12/08 01:02:25;;;;;;;;;22.25;20.25;;;;;14.67;46.78;98065.78;4894293;28;103241;-81
2021/12/08 01:04:52;;;;;;;;;28.00;25.00;;;;;14.68;46.88;98078.28;4905382;28;102399;-82
2021/12/08 01:07:19;;;;;;;;;25.75;23.25;;;;;14.66;46.62;98075.00;4897838;28;102327;-82
2021/12/08 01:09:47;;;;;;;;;23.50;21.00;;;;;14.65;47.18;98079.63;4900740;28;110596;-82
2021/12/08 01:12:14;;;;;;;;;22.75;22.00;;;;;14.62;46.67;98077.38;4924783;28;102162;-82
2021/12/08 01:14:41;;;;;;;;;25.25;22.00;;;;;14.63;47.09;98079.03;4890440;28;102470;-82
2021/12/08 01:17:09;;;;;;;;;29.00;23.00;;;;;14.62;46.57;98079.28;4894842;28;102522;-82
2021/12/08 01:19:37;;;;;;;;;22.00;20.00;;;;;14.60;47.05;98070.50;4906685;28;104387;-82
2021/12/08 01:22:04;;;;;;;;;25.00;22.25;;;;;14.62;46.92;98073.84;4911811;28;103186;-82
2021/12/08 01:24:31;;;;;;;;;24.50;20.75;;;;;14.59;47.06;98075.13;4903237;28;102613;-81
2021/12/08 01:26:59;;;;;;;;;20.50;20.00;;;;;14.59;46.92;98072.41;4911420;28;102881;-81
2021/12/08 01:29:26;;;;;;;;;24.50;21.25;;;;;14.58;47.07;98067.22;4903400;28;103952;-82
2021/12/08 01:31:53;;;;;;;;;18.75;18.00;;;;;14.58;46.58;98050.91;4900600;28;103519;-82
2021/12/08 01:34:20;;;;;;;;;22.25;18.00;;;;;14.57;46.69;98041.06;4922604;28;102281;-82
2021/12/08 01:36:47;;;;;;;;;23.25;22.50;;;;;14.56;46.53;98025.81;4893220;28;102700;-82
2021/12/08 01:39:14;;;;;;;;;23.00;19.00;;;;;14.56;47.26;98031.25;4898615;28;104496;-82
2021/12/08 01:41:41;;;;;;;;;23.50;18.75;;;;;14.54;46.98;98034.22;4900969;28;103361;-82
2021/12/08 01:46:53;;;;;;;;;21.50;18.75;;;;;14.52;46.99;98027.34;4881059;28;104134;-82
2021/12/08 01:49:21;;;;;;;;;20.25;19.25;;;;;14.52;46.75;98025.47;4904754;28;104286;-82
2021/12/08 01:51:48;;;;;;;;;18.75;18.75;;;;;14.51;47.06;98031.13;4905478;28;102809;-82
2021/12/08 01:54:16;;;;;;;;;20.50;19.25;;;;;14.50;46.65;98037.69;4897060;28;104245;-82
2021/12/08 01:56:43;;;;;;;;;20.25;19.00;;;;;14.49;46.65;98030.56;4898390;28;108965;-82
2021/12/08 01:59:10;;;;;;;;;19.75;19.00;;;;;14.48;46.67;98029.75;4897066;28;104092;-82
2021/12/08 02:01:39;;;;;;;;;18.75;17.00;;;;;14.47;46.59;98027.25;4883284;28;103572;-82
2021/12/08 02:04:06;;;;;;;;;18.75;18.00;;;;;14.45;46.44;98023.97;4847050;28;103071;-82
2021/12/08 02:06:38;;;;;;;;;19.75;17.75;;;;;14.47;46.61;98027.25;4887180;28;104434;-81
2021/12/08 02:09:06;;;;;;;;;20.25;18.00;;;;;14.46;46.41;98022.88;4862647;28;104289;-82
2021/12/08 02:11:39;;;;;;;;;19.75;16.75;;;;;14.46;46.81;98022.88;4830414;28;102218;-82
2021/12/08 02:14:07;;;;;;;;;24.50;18.25;;;;;14.44;47.17;98017.69;4852523;28;102556;-81
2021/12/08 02:16:34;;;;;;;;;21.25;19.25;;;;;14.43;47.08;98007.88;4869840;28;102537;-82
2021/12/08 02:19:01;;;;;;;;;21.25;18.25;;;;;14.43;46.79;98005.16;4876110;28;104356;-82
2021/12/08 02:21:38;;;;;;;;;18.25;15.50;;;;;14.41;47.19;97990.94;4877794;28;102696;-82
2021/12/08 02:24:10;;;;;;;;;21.75;18.50;;;;;14.42;47.15;97986.34;4878851;28;102483;-82
2021/12/08 02:26:38;;;;;;;;;21.25;18.25;;;;;14.41;47.26;97976.53;4878535;28;102847;-82
2021/12/08 02:29:08;;;;;;;;;17.75;16.50;;;;;14.39;47.24;97982.22;4869915;28;104074;-82
2021/12/08 02:31:48;;;;;;;;;18.25;17.75;;;;;14.39;46.84;97987.66;4860852;28;104175;-82
2021/12/08 02:48:04;;;;;;;;;16.75;16.25;;;;;14.34;46.22;97983.97;4880624;28;102852;-82
2021/12/08 02:50:34;;;;;;;;;15.00;14.00;;;;;14.34;46.37;97983.97;4888496;28;104025;-82
2021/12/08 02:53:01;;;;;;;;;21.75;19.00;;;;;14.32;46.92;97986.91;4875797;28;102178;-82
2021/12/08 02:55:28;;;;;;;;;17.75;16.25;;;;;14.32;47.20;97969.78;4895495;28;102926;-82
2021/12/08 02:57:56;;;;;;;;;20.50;16.25;;;;;14.30;46.93;97979.03;4866748;28;105846;-82
2021/12/08 03:00:25;;;;;;;;;14.25;13.00;;;;;14.30;47.09;97973.56;4892719;28;108858;-82
2021/12/08 03:02:57;;;;;;;;;19.25;16.00;;;;;14.29;46.65;97977.34;4884870;28;102472;-82
2021/12/08 03:05:24;;;;;;;;;19.50;17.00;;;;;14.29;47.30;97966.47;4888961;28;102456;-82
2021/12/08 03:07:51;;;;;;;;;16.00;15.25;;;;;14.29;46.64;97980.06;4884898;28;102562;-82
2021/12/08 03:10:21;;;;;;;;;14.75;14.50;;;;;14.28;46.74;97975.69;4874290;28;103917;-82
2021/12/08 03:12:48;;;;;;;;;16.75;15.00;;;;;14.27;47.32;97974.03;4885768;28;102182;-82
2021/12/08 03:15:15;;;;;;;;;18.00;15.75;;;;;14.25;47.33;97976.19;4868110;28;102622;-82
2021/12/08 03:17:42;;;;;;;;;17.00;14.75;;;;;14.25;47.28;97980.78;4880999;28;102698;-82
2021/12/08 03:20:14;;;;;;;;;16.75;15.50;;;;;14.26;46.86;97974.28;4870770;28;104422;-82
2021/12/08 03:22:45;;;;;;;;;14.00;13.00;;;;;14.26;46.90;97972.41;4872879;28;103336;-82
2021/12/08 03:25:16;;;;;;;;;16.50;13.00;;;;;14.27;46.86;97973.25;4858259;28;102320;-82
2021/12/08 03:28:07;;;;;;;;;14.00;14.00;;;;;14.26;47.15;97961.53;4877940;28;102530;-82
2021/12/08 03:30:39;;;;;;;;;16.50;14.25;;;;;14.29;46.94;97961.03;4875568;28;108855;-82
2021/12/08 03:33:08;;;;;;;;;15.75;14.75;;;;;14.32;46.92;97951.56;4859179;28;105078;-82
2021/12/08 03:35:35;;;;;;;;;15.75;13.75;;;;;14.33;46.74;97945.06;4874140;28;102602;-81
2021/12/08 03:38:03;;;;;;;;;19.25;15.75;;;;;14.35;46.34;97942.13;4863636;28;102681;-82
2021/12/08 03:40:32;;;;;;;;;18.25;15.75;;;;;14.36;46.33;97938.38;4859786;28;104009;-81
2021/12/08 03:42:59;;;;;;;;;20.00;13.75;;;;;14.38;46.67;97947.09;4870003;28;102694;-81
2021/12/08 03:45:30;;;;;;;;;16.25;15.50;;;;;14.38;46.34;97942.47;4877169;28;103077;-82
2021/12/08 03:48:03;;;;;;;;;18.25;15.75;;;;;14.40;46.75;97936.81;4871153;28;102850;-82
2021/12/08 03:50:31;;;;;;;;;13.50;13.00;;;;;14.41;46.47;97936.53;4862849;28;104073;-82
2021/12/08 03:52:58;;;;;;;;;16.75;13.25;;;;;14.42;45.96;97931.94;4870164;28;102832;-81
2021/12/08 03:55:25;;;;;;;;;17.75;14.00;;;;;14.41;46.44;97931.09;4872463;28;102429;-82
2021/12/08 03:57:52;;;;;;;;;14.75;13.75;;;;;14.43;46.53;97923.53;4874052;28;103972;-82
2021/12/08 04:00:22;;;;;;;;;13.75;13.00;;;;;14.43;46.02;97928.16;4872818;28;104084;-82
2021/12/08 04:02:49;;;;;;;;;13.25;12.75;;;;;14.44;46.08;97935.25;4863412;28;102256;-82
2021/12/08 04:05:22;;;;;;;;;14.75;14.00;;;;;14.43;46.74;97942.59;4864504;28;102655;-82
2021/12/08 04:07:51;;;;;;;;;13.75;12.00;;;;;14.43;46.68;97941.75;4875430;28;102838;-82
2021/12/08 04:10:20;;;;;;;;;14.00;12.75;;;;;14.42;46.75;97937.38;4856427;28;104026;-82
2021/12/08 04:12:51;;;;;;;;;13.00;12.25;;;;;14.41;46.60;97938.47;4860384;28;102408;-82
2021/12/08 04:15:21;;;;;;;;;12.00;10.25;;;;;14.43;46.46;97944.47;4885105;28;102736;-81
2021/12/08 04:17:50;;;;;;;;;14.00;11.75;;;;;14.42;46.10;97959.97;4895999;28;102894;-82
2021/12/08 04:20:49;;;;;;;;;12.25;10.25;;;;;14.42;46.58;97959.97;4878076;28;104110;-82
2021/12/08 04:23:16;;;;;;;;;11.50;10.00;;;;;14.42;46.58;97953.69;4865866;28;105234;-82
2021/12/08 04:25:46;;;;;;;;;13.75;12.25;;;;;14.44;46.78;97967.91;4892300;28;102826;-82
2021/12/08 04:28:21;;;;;;;;;11.75;11.50;;;;;14.43;46.31;97966.25;4886134;28;102683;-82
2021/12/08 04:30:50;;;;;;;;;13.25;11.50;;;;;14.42;46.44;97959.97;4890684;28;104289;-81
2021/12/08 04:33:17;;;;;;;;;10.25;9.00;;;;;14.41;46.45;97962.94;4871614;28;103848;-82
2021/12/08 04:35:49;;;;;;;;;14.25;13.50;;;;;14.41;46.08;97962.94;4867300;28;102780;-82
2021/12/08 04:38:22;;;;;;;;;14.25;12.00;;;;;14.42;46.63;97959.13;4878427;28;112406;-82
2021/12/08 04:46:08;;;;;;;;;13.25;10.25;;;;;14.39;46.35;97946.03;4875725;28;103017;-82
2021/12/08 04:51:27;;;;;;;;;11.00;9.75;;;;;14.36;46.41;97935.63;4883124;28;104354;-82
2021/12/08 05:00:18;;;;;;;;;13.00;11.00;;;;;14.34;46.22;97932.28;4883737;28;102488;-82
2021/12/08 05:08:10;;;;;;;;;14.50;12.25;;;;;14.30;46.91;97931.97;4882613;28;103113;-82
2021/12/08 05:10:38;;;;;;;;;13.25;9.75;;;;;14.29;46.55;97922.97;4885855;28;103430;-82
2021/12/08 05:13:07;;;;;;;;;10.25;10.25;;;;;14.28;46.48;97920.47;4889914;28;104058;-82
2021/12/08 05:15:39;;;;;;;;;14.25;10.75;;;;;14.27;46.36;97930.53;4906095;28;102708;-82
2021/12/08 05:18:18;;;;;;;;;11.25;8.75;;;;;14.25;46.75;97915.53;4920592;28;102551;-82
2021/12/08 05:21:03;;;;;;;;;11.75;11.75;;;;;14.23;46.92;97918.47;4892392;28;102545;-81
2021/12/08 05:24:05;;;;;;;;;12.00;11.25;;;;;14.23;46.71;97934.78;4885004;28;108833;-82
2021/12/08 05:26:42;;;;;;;;;14.25;10.25;;;;;14.23;46.98;97937.50;4884240;28;102602;-82
2021/12/08 05:29:16;;;;;;;;;11.00;8.75;;;;;14.22;46.51;97935.88;4910220;28;102203;-82
2021/12/08 05:31:43;;;;;;;;;12.00;11.25;;;;;14.23;46.91;97928.53;4927021;28;102277;-81
2021/12/08 05:34:10;;;;;;;;;17.00;14.00;;;;;14.22;47.97;97927.72;4903311;28;103819;-81
2021/12/08 05:36:37;;;;;;;;;12.00;11.00;;;;;14.25;47.93;97920.97;4916287;28;103172;-81
2021/12/08 05:39:08;;;;;;;;;12.00;11.75;;;;;14.27;49.10;97914.22;4886132;28;103930;-81
2021/12/08 05:41:36;;;;;;;;;10.50;10.50;;;;;14.29;49.16;97917.53;4895108;28;102803;-81
2021/12/08 05:44:03;;;;;;;;;13.25;12.00;;;;;14.32;49.72;97908.88;4903165;28;104427;-81
2021/12/08 05:46:31;;;;;;;;;19.00;14.25;;;;;14.35;50.07;97901.31;4915562;28;102708;-81
2021/12/08 05:49:00;;;;;;;;;17.00;14.00;;;;;14.36;49.75;97906.56;4910336;28;102615;-81
2021/12/08 05:51:29;;;;;;;;;15.75;14.00;;;;;14.37;50.14;97904.63;4926403;28;105347;-81
2021/12/08 05:53:59;;;;;;;;;17.25;14.25;;;;;14.39;50.07;97897.91;4917677;28;108940;-82
2021/12/08 05:56:27;;;;;;;;;16.00;14.00;;;;;14.41;49.91;97903.91;4888158;28;103518;-81
2021/12/08 05:58:55;;;;;;;;;14.25;14.25;;;;;14.43;50.17;97901.78;4875636;28;102873;-81
2021/12/08 06:01:33;;;;;;;;;22.00;15.00;;;;;14.43;50.53;97899.06;4917399;28;102746;-81
2021/12/08 06:04:00;;;;;;;;;15.50;14.50;;;;;14.46;49.85;97897.75;4876450;28;108345;-81
2021/12/08 06:06:27;;;;;;;;;17.50;16.00;;;;;14.48;50.06;97892.91;4907449;28;104609;-81
2021/12/08 06:08:54;;;;;;;;;12.25;11.25;;;;;14.47;49.96;97902.13;4929927;28;102548;-82
2021/12/08 06:11:26;;;;;;;;;18.00;14.75;;;;;14.50;49.84;97897.00;4899641;28;102603;-81
2021/12/08 06:13:53;;;;;;;;;18.25;16.75;;;;;14.53;50.22;97895.72;4866410;28;108929;-81
2021/12/08 06:16:21;;;;;;;;;16.00;13.50;;;;;14.53;49.77;97904.72;4925510;28;102395;-81
2021/12/08 06:18:51;;;;;;;;;12.75;9.50;;;;;14.55;50.18;97890.84;4918045;28;102371;-81
2021/12/08 06:21:22;;;;;;;;;16.00;14.50;;;;;14.57;50.12;97902.31;4914221;28;104376;-81
2021/12/08 06:23:49;;;;;;;;;16.00;12.25;;;;;14.58;50.13;97893.09;4918651;28;104064;-81
2021/12/08 06:26:18;;;;;;;;;16.75;14.00;;;;;14.59;50.46;97883.88;4910124;28;102508;-81
2021/12/08 06:28:45;;;;;;;;;14.25;13.00;;;;;14.61;50.08;97890.72;4899987;28;102787;-81
2021/12/08 06:31:13;;;;;;;;;18.75;14.75;;;;;14.63;49.74;97891.28;4923210;28;102738;-81
2021/12/08 06:33:40;;;;;;;;;16.00;14.50;;;;;14.64;49.93;97886.66;4920005;28;104154;-81
2021/12/08 06:36:34;;;;;;;;;15.75;14.50;;;;;14.66;50.24;97873.66;4914095;28;102362;-81
2021/12/08 06:39:01;;;;;;;;;16.75;13.00;;;;;14.66;50.38;97873.66;4909364;28;102501;-81
2021/12/08 06:44:56;;;;;;;;;16.00;15.00;;;;;14.70;49.75;97888.41;4910827;28;109829;-81
2021/12/08 06:47:28;;;;;;;;;15.50;13.25;;;;;14.72;49.94;97872.69;4895929;28;102482;-81
2021/12/08 06:49:56;;;;;;;;;14.25;13.00;;;;;14.70;49.71;97863.91;4913213;28;102455;-81
2021/12/08 06:52:29;;;;;;;;;16.50;13.75;;;;;14.74;50.01;97878.69;4919825;28;102710;-82
2021/12/08 06:55:04;;;;;;;;;15.00;13.25;;;;;14.74;49.71;97862.34;4902053;28;108818;-81
2021/12/08 06:57:34;;;;;;;;;18.50;13.25;;;;;14.75;49.72;97866.72;4889143;28;103994;-81
2021/12/08 07:00:18;;;;;;;;;13.75;12.50;;;;;14.77;49.35;97874.66;4907583;28;102473;-81
2021/12/08 07:05:52;;;;;;;;;14.50;10.75;;;;;14.79;49.44;97876.06;4894499;28;103856;-81
2021/12/08 07:08:18;;;;;;;;;14.75;14.25;;;;;14.81;49.39;97870.38;4894567;28;111474;-81
2021/12/08 07:10:46;;;;;;;;;10.75;8.00;;;;;14.81;49.25;97859.50;4902664;28;102578;-82
2021/12/08 07:13:20;;;;;;;;;13.75;12.00;;;;;14.82;49.49;97851.06;4880613;28;102680;-81
2021/12/08 07:15:51;;;;;;;;;16.00;13.00;;;;;14.82;49.40;97866.56;4898227;28;104337;-81
2021/12/08 07:18:25;;;;;;;;;16.75;14.25;;;;;14.84;49.33;97875.31;4896694;28;102485;-81
2021/12/08 07:20:58;;;;;;;;;13.25;12.75;;;;;14.86;49.14;97884.88;4921865;28;103022;-81
2021/12/08 07:23:28;;;;;;;;;14.50;12.25;;;;;14.87;49.37;97870.19;4902626;28;105767;-82
2021/12/08 07:25:56;;;;;;;;;14.75;12.00;;;;;14.88;49.33;97885.47;4917784;28;108733;-81
2021/12/08 07:28:24;;;;;;;;;17.00;13.00;;;;;14.88;49.24;97887.38;4886498;28;102492;-81
2021/12/08 07:31:04;;;;;;;;;17.00;14.25;;;;;14.88;49.09;97887.38;4893135;28;102527;-81
2021/12/08 07:33:31;;;;;;;;;12.00;9.75;;;;;14.89;48.83;97895.28;4909050;28;102877;-81
2021/12/08 07:36:03;;;;;;;;;16.75;13.00;;;;;14.90;49.27;97899.69;4917420;28;104204;-81
2021/12/08 07:38:30;;;;;;;;;14.50;11.50;;;;;14.92;48.82;97904.84;4898275;28;103581;-81
2021/12/08 07:40:58;;;;;;;;;13.00;11.50;;;;;14.92;49.17;97905.69;4880319;28;103365;-81
2021/12/08 07:43:25;;;;;;;;;16.00;14.50;;;;;14.93;49.21;97907.34;4911706;28;102757;-81
2021/12/08 07:46:02;;;;;;;;;14.50;12.25;;;;;14.95;49.58;97907.09;4916696;28;104246;-81
2021/12/08 07:48:44;;;;;;;;;14.50;12.00;;;;;14.95;48.92;97901.66;4888517;28;102727;-81
2021/12/08 07:51:30;;;;;;;;;13.25;11.25;;;;;14.97;49.02;97899.50;4912184;28;102417;-81
2021/12/08 07:53:57;;;;;;;;;12.75;12.25;;;;;14.97;49.11;97908.50;4922767;28;102583;-81
2021/12/08 07:56:25;;;;;;;;;13.00;12.50;;;;;14.99;49.13;97905.53;4904229;28;112960;-81
2021/12/08 07:58:55;;;;;;;;;13.00;11.50;;;;;14.98;48.58;97901.97;4899414;28;102648;-81
2021/12/08 08:01:33;;;;;;;;;10.50;10.50;;;;;14.99;48.62;97897.38;4910013;28;102463;-81
2021/12/08 08:04:01;;;;;;;;;11.50;10.50;;;;;15.00;48.70;97891.66;4908579;28;102641;-81
2021/12/08 08:06:35;;;;;;;;;13.75;10.25;;;;;15.01;48.65;97887.03;4911507;28;104322;-81
2021/12/08 08:09:12;;;;;;;;;12.75;11.75;;;;;15.01;48.64;97887.03;4912527;28;102961;-82
2021/12/08 08:11:42;;;;;;;;;13.00;9.50;;;;;15.02;48.72;97884.09;4909335;28;102354;-81
2021/12/08 08:14:10;;;;;;;;;15.50;11.75;;;;;15.03;48.88;97888.47;4908292;28;103157;-81
2021/12/08 08:16:38;;;;;;;;;14.00;12.50;;;;;15.04;48.67;97898.25;4898680;28;104130;-82
2021/12/08 08:19:10;;;;;;;;;13.75;8.25;;;;;15.04;48.65;97892.81;4905307;28;102402;-81
2021/12/08 08:21:44;;;;;;;;;11.00;10.75;;;;;15.04;48.81;97890.09;4902552;28;102468;-81
2021/12/08 08:24:11;;;;;;;;;9.50;7.00;;;;;15.06;48.64;97889.84;4901498;28;102539;-81
2021/12/08 08:26:40;;;;;;;;;12.25;11.50;;;;;15.06;48.71;97874.34;4904059;28;104312;-81
2021/12/08 08:29:07;;;;;;;;;11.00;10.00;;;;;15.06;48.94;97863.47;4909576;28;102427;-81
2021/12/08 08:31:42;;;;;;;;;12.50;9.50;;;;;15.08;48.58;97868.66;4914327;28;102432;-81
2021/12/08 08:34:10;;;;;;;;;13.75;11.50;;;;;15.08;48.62;97877.63;4911421;28;102331;-81
2021/12/08 08:36:43;;;;;;;;;14.00;12.25;;;;;15.09;48.59;97879.28;4906291;28;104074;-81
2021/12/08 08:39:29;;;;;;;;;13.75;9.75;;;;;15.09;48.67;97873.84;4907706;28;103793;-81
2021/12/08 08:42:08;;;;;;;;;10.75;9.00;;;;;15.11;48.85;97887.22;4923249;28;102755;-81
2021/12/08 08:44:37;;;;;;;;;14.00;12.50;;;;;15.12;48.61;97875.25;4887087;28;102823;-81
2021/12/08 08:47:07;;;;;;;;;10.00;9.50;;;;;15.11;48.68;97869.00;4905442;28;103538;-81
2021/12/08 08:49:35;;;;;;;;;12.75;10.50;;;;;15.12;48.33;97867.91;4900504;28;102673;-82
2021/12/08 08:52:31;;;;;;;;;14.00;13.00;;;;;15.13;48.47;97868.72;4903568;28;102096;-82
2021/12/08 08:55:06;;;;;;;;;14.50;13.25;;;;;15.14;48.17;97875.81;4905190;28;102453;-82
2021/12/08 08:57:57;;;;;;;;;3.25;3.00;;;;;15.14;48.26;97879.38;4902002;28;107223;-81
2021/12/08 09:06:38;;;;;;;;;13.75;11.00;;;;;15.18;48.34;97872.34;5640880;23;102522;-62
2021/12/08 09:09:08;;;;;;;;;15.00;10.25;;;;;15.18;48.60;97872.34;4854288;28;104082;-60
2021/12/08 09:11:38;;;;;;;;;16.50;14.50;;;;;15.20;48.31;97883.00;4858378;28;102681;-62
2021/12/08 09:14:11;;;;;;;;;14.00;11.25;;;;;15.12;48.15;97867.91;4857215;28;106229;-61
2021/12/08 09:16:50;;;;;;;;;12.50;9.00;;;;;15.23;48.35;97877.06;4887316;28;102776;-61
2021/12/08 09:19:30;;;;;;;;;10.75;10.75;;;;;15.25;48.36;97885.00;4857554;28;102649;-61
2021/12/08 09:22:02;;;;;;;;;15.50;9.50;;;;;15.25;48.34;97877.66;4862642;28;102164;-61
2021/12/08 09:24:56;;;;;;;;;13.00;9.50;;;;;15.28;48.36;97863.53;4884420;28;102563;-61
2021/12/08 09:27:33;;;;;;;;;12.75;11.25;;;;;15.28;48.33;97881.75;4795012;28;102238;-61
2021/12/08 09:30:05;;;;;;;;;12.00;9.75;;;;;15.28;48.23;97881.75;4826510;28;103959;-61
2021/12/08 09:32:41;;;;;;;;;13.75;10.75;;;;;15.28;48.35;97871.69;4861071;28;102171;-61
2021/12/08 09:35:16;;;;;;;;;13.00;9.50;;;;;15.29;48.04;97876.06;4893005;28;102091;-61
2021/12/08 09:37:47;;;;;;;;;14.00;10.50;;;;;15.30;48.09;97883.19;4862711;28;102673;-61
2021/12/08 09:40:40;;;;;;;;;11.75;10.25;;;;;15.30;47.96;97879.63;4891395;28;104145;-61
2021/12/08 09:43:29;;;;;;;;;13.25;11.00;;;;;15.29;48.02;97881.53;4867309;28;102782;-61
2021/12/08 09:46:02;;;;;;;;;12.25;8.50;;;;;15.30;48.04;97875.00;4890521;28;102498;-61
2021/12/08 09:48:30;;;;;;;;;14.00;11.50;;;;;15.30;48.33;97869.56;4883530;28;102349;-61
2021/12/08 09:50:58;;;;;;;;;13.25;10.00;;;;;15.32;47.89;97866.56;4884399;28;104102;-61
2021/12/08 09:53:26;;;;;;;;;13.25;10.00;;;;;15.30;48.14;97860.56;4891894;28;102512;-61
2021/12/08 09:55:57;;;;;;;;;12.25;10.50;;;;;15.32;48.25;97859.22;4882746;28;102377;-58
2021/12/08 09:58:24;;;;;;;;;11.75;11.25;;;;;15.33;47.92;97862.78;4885013;28;102182;-58
2021/12/08 10:00:56;;;;;;;;;12.50;10.75;;;;;15.33;47.75;97851.88;4889303;28;104279;-59
2021/12/08 10:03:24;;;;;;;;;11.50;10.25;;;;;15.34;47.96;97856.25;4882427;28;102204;-59
2021/12/08 10:05:52;;;;;;;;;11.50;9.75;;;;;15.34;48.10;97848.09;4880151;28;102058;-58
2021/12/08 10:08:19;;;;;;;;;11.25;9.00;;;;;15.32;47.99;97840.16;4892196;28;102252;-58
2021/12/08 10:10:46;;;;;;;;;14.50;12.00;;;;;15.34;47.78;97845.38;4879619;28;105547;-59
2021/12/08 10:13:14;;;;;;;;;14.50;11.50;;;;;15.34;47.81;97843.47;4888217;28;102683;-58
2021/12/08 10:15:41;;;;;;;;;13.00;10.50;;;;;15.34;47.92;97842.63;4886131;28;102960;-58
2021/12/08 10:18:09;;;;;;;;;9.75;9.00;;;;;15.35;48.06;97827.94;4884313;28;102574;-58
2021/12/08 10:20:47;;;;;;;;;10.75;10.00;;;;;15.36;47.75;97821.41;4879602;28;104244;-59
2021/12/08 10:23:28;;;;;;;;;11.25;10.75;;;;;15.36;47.72;97829.56;4891352;28;102407;-58
2021/12/08 10:26:06;;;;;;;;;13.50;9.75;;;;;15.36;47.76;97829.56;4886185;28;102000;-59
2021/12/08 10:28:40;;;;;;;;;11.00;10.25;;;;;15.36;48.28;97827.69;4884629;28;102242;-59
2021/12/08 10:31:12;;;;;;;;;14.75;12.75;;;;;15.37;47.78;97831.22;4888784;28;104262;-59
2021/12/08 10:36:44;;;;;;;;;15.25;12.25;;;;;15.39;47.97;97812.75;4881871;28;102051;-59
2021/12/08 10:39:24;;;;;;;;;10.75;9.75;;;;;15.39;47.73;97812.75;4885252;28;102819;-59
2021/12/08 10:42:29;;;;;;;;;14.00;10.50;;;;;15.39;47.88;97810.03;4886923;28;104045;-59
2021/12/08 10:45:12;;;;;;;;;13.50;10.25;;;;;15.40;47.92;97798.06;4893840;28;103713;-58
2021/12/08 10:47:43;;;;;;;;;9.75;9.25;;;;;15.40;47.48;97800.78;4892224;28;102045;-59
2021/12/08 10:55:59;;;;;;;;;12.25;10.75;;;;;15.39;47.82;97786.34;4894735;28;103312;-59
2021/12/08 10:58:29;;;;;;;;;9.75;9.75;;;;;15.40;47.88;97781.72;4894283;28;102170;-58
2021/12/08 11:00:58;;;;;;;;;9.75;8.75;;;;;15.41;47.35;97792.34;4882835;28;102273;-59
2021/12/08 11:03:29;;;;;;;;;3.50;3.50;;;;;15.41;47.69;97786.06;4884409;28;104148;-59
2021/12/08 11:05:58;;;;;;;;;10.75;9.25;;;;;15.43;47.68;97783.94;4890556;28;102542;-58
2021/12/08 11:08:35;;;;;;;;;17.00;12.00;;;;;15.44;47.81;97771.97;4885525;28;103149;-59
2021/12/08 11:11:04;;;;;;;;;13.25;12.75;;;;;15.44;47.66;97769.25;4898562;28;102378;-58
2021/12/08 11:13:36;;;;;;;;;10.75;9.75;;;;;15.45;48.24;97763.50;4894294;28;103888;-58
2021/12/08 11:16:07;;;;;;;;;10.50;8.50;;;;;15.45;47.42;97762.69;4907247;28;102081;-59
2021/12/08 11:18:38;;;;;;;;;13.00;10.25;;;;;15.47;47.31;97766.00;4895955;28;102089;-59
2021/12/08 11:21:32;;;;;;;;;10.00;9.50;;;;;15.48;47.67;97764.94;4902645;28;102467;-59
2021/12/08 11:24:14;;;;;;;;;12.25;10.00;;;;;15.48;47.38;97757.59;4906061;28;104125;-59
2021/12/08 11:26:43;;;;;;;;;10.00;10.00;;;;;15.49;47.12;97752.97;4904571;28;102675;-58
2021/12/08 11:29:12;;;;;;;;;15.00;11.25;;;;;15.49;47.67;97758.41;4904754;28;102605;-58
2021/12/08 11:31:41;;;;;;;;;11.75;10.25;;;;;15.50;47.72;97754.59;4906449;28;102397;-59
2021/12/08 11:34:17;;;;;;;;;11.75;9.00;;;;;15.51;47.26;97753.53;4905807;28;104557;-58
2021/12/08 11:36:53;;;;;;;;;10.50;9.00;;;;;15.50;47.28;97749.13;4891143;28;102583;-59
2021/12/08 11:39:27;;;;;;;;;13.00;10.00;;;;;15.52;47.19;97752.47;4907344;28;102369;-59
2021/12/08 11:41:57;;;;;;;;;14.75;11.00;;;;;15.51;47.35;97759.81;4905031;28;102936;-58
2021/12/08 11:44:26;;;;;;;;;14.00;8.75;;;;;15.51;47.15;97764.44;4903715;28;104090;-58
2021/12/08 11:47:20;;;;;;;;;13.25;10.50;;;;;15.52;47.45;97755.19;4900670;28;102010;-58
2021/12/08 11:49:53;;;;;;;;;12.00;10.75;;;;;15.52;47.17;97752.47;4900711;28;102654;-59
2021/12/08 11:52:23;;;;;;;;;14.25;10.75;;;;;15.51;47.46;97750.81;4895359;28;103607;-59
2021/12/08 11:54:56;;;;;;;;;9.00;8.00;;;;;15.51;47.24;97750.81;4898987;28;104873;-59
2021/12/08 11:57:25;;;;;;;;;11.75;10.00;;;;;15.49;47.16;97748.31;4894440;28;102077;-59
2021/12/08 11:59:55;;;;;;;;;9.25;9.00;;;;;15.49;47.40;97752.97;4896705;28;103133;-59
2021/12/08 12:02:35;;;;;;;;;15.00;10.00;;;;;15.49;47.16;97751.03;4905617;28;102122;-59
2021/12/08 12:05:05;;;;;;;;;12.00;10.75;;;;;15.49;47.20;97752.97;4892443;28;104184;-59
2021/12/08 12:07:32;;;;;;;;;13.50;13.00;;;;;15.49;47.30;97750.25;4896724;28;102435;-59
2021/12/08 12:09:59;;;;;;;;;11.75;9.75;;;;;15.48;47.22;97754.03;4905568;28;102338;-58
2021/12/08 12:12:26;;;;;;;;;9.75;9.00;;;;;15.48;47.26;97756.75;4900588;28;102927;-59
2021/12/08 12:14:53;;;;;;;;;11.75;11.00;;;;;15.47;47.51;97755.94;4900046;28;104090;-58
2021/12/08 12:17:20;;;;;;;;;13.75;9.00;;;;;15.48;47.51;97759.47;4905548;28;102431;-58
2021/12/08 12:19:52;;;;;;;;;11.50;10.00;;;;;15.47;46.98;97755.09;4900206;28;102381;-59
2021/12/08 12:22:45;;;;;;;;;12.50;9.00;;;;;15.48;47.26;97751.31;4900936;28;102140;-58
2021/12/08 12:25:32;;;;;;;;;16.50;11.50;;;;;15.47;47.29;97749.66;4889746;28;104078;-59
2021/12/08 12:28:08;;;;;;;;;11.00;10.00;;;;;15.47;47.09;97752.38;4887466;28;103352;-58
2021/12/08 12:30:57;;;;;;;;;12.00;9.75;;;;;15.47;47.22;97744.19;4902917;28;102092;-59
2021/12/08 12:33:24;;;;;;;;;12.25;11.00;;;;;15.46;47.00;97746.09;4898833;28;102661;-59